sensor_id;sensor_type;location;lat;lon;timestamp;pressure;altitude;pressure_sealevel;temperature;humidity
84122;BME280;74217;51.106;17.084;2024-02-23T00:00:17;97978.69;;;7.96;86.31
84122;BME280;74217;51.106;17.084;2024-02-23T00:03:23;97985.31;;;7.89;86.69
84122;BME280;74217;51.106;17.084;2024-02-23T00:06:08;97980.16;;;7.88;87.51
84122;BME280;74217;51.106;17.084;2024-02-23T00:08:54;97972.31;;;7.88;86.89
84122;BME280;74217;51.106;17.084;2024-02-23T00:11:40;97986.78;;;7.93;87.32
84122;BME280;74217;51.106;17.084;2024-02-23T00:14:30;97977.34;;;7.91;87.10
84122;BME280;74217;51.106;17.084;2024-02-23T00:17:20;97985.09;;;7.92;86.78
84122;BME280;74217;51.106;17.084;2024-02-23T00:20:05;97980.16;;;7.88;87.24
84122;BME280;74217;51.106;17.084;2024-02-23T00:22:50;97983.41;;;7.91;86.75
84122;BME280;74217;51.106;17.084;2024-02-23T00:25:35;97990.13;;;7.95;87.10
84122;BME280;74217;51.106;17.084;2024-02-23T00:28:20;97971.69;;;7.97;86.99
84122;BME280;74217;51.106;17.084;2024-02-23T00:31:05;97985.50;;;7.99;86.61
84122;BME280;74217;51.106;17.084;2024-02-23T00:33:49;97991.78;;;7.96;87.40
84122;BME280;74217;51.106;17.084;2024-02-23T00:36:34;97988.13;;;7.99;87.00
84122;BME280;74217;51.106;17.084;2024-02-23T00:39:19;97996.50;;;8.04;86.58
84122;BME280;74217;51.106;17.084;2024-02-23T00:42:04;98000.38;;;7.98;86.66
84122;BME280;74217;51.106;17.084;2024-02-23T00:44:49;98001.22;;;7.99;86.87
84122;BME280;74217;51.106;17.084;2024-02-23T00:47:34;98005.91;;;8.06;86.21
84122;BME280;74217;51.106;17.084;2024-02-23T00:50:19;98007.69;;;8.06;87.35
84122;BME280;74217;51.106;17.084;2024-02-23T00:53:05;98003.31;;;8.06;86.51
84122;BME280;74217;51.106;17.084;2024-02-23T00:55:50;97987.97;;;8.13;86.09
84122;BME280;74217;51.106;17.084;2024-02-23T00:58:34;97989.47;;;8.04;87.13
84122;BME280;74217;51.106;17.084;2024-02-23T01:01:19;97991.34;;;8.02;87.76
84122;BME280;74217;51.106;17.084;2024-02-23T01:04:05;97981.41;;;8.07;86.84
84122;BME280;74217;51.106;17.084;2024-02-23T01:06:49;97977.22;;;8.17;86.38
84122;BME280;74217;51.106;17.084;2024-02-23T01:09:35;97979.19;;;8.14;86.85
84122;BME280;74217;51.106;17.084;2024-02-23T01:12:19;97971.84;;;8.19;86.83
84122;BME280;74217;51.106;17.084;2024-02-23T01:15:05;97966.41;;;8.09;86.50
84122;BME280;74217;51.106;17.084;2024-02-23T01:17:50;97971.66;;;8.09;85.91
84122;BME280;74217;51.106;17.084;2024-02-23T01:20:34;97976.25;;;8.18;86.21
84122;BME280;74217;51.106;17.084;2024-02-23T01:23:20;97970.25;;;8.16;85.37
84122;BME280;74217;51.106;17.084;2024-02-23T01:26:05;97971.03;;;8.18;85.67
84122;BME280;74217;51.106;17.084;2024-02-23T01:28:50;97976.03;;;8.21;85.88
84122;BME280;74217;51.106;17.084;2024-02-23T01:31:35;97974.59;;;8.17;86.28
84122;BME280;74217;51.106;17.084;2024-02-23T01:34:22;97978.03;;;8.18;85.22
84122;BME280;74217;51.106;17.084;2024-02-23T01:37:07;97977.94;;;8.19;85.48
84122;BME280;74217;51.106;17.084;2024-02-23T01:39:52;97973.06;;;8.26;85.30
84122;BME280;74217;51.106;17.084;2024-02-23T01:42:38;97975.06;;;8.22;85.38
84122;BME280;74217;51.106;17.084;2024-02-23T01:45:23;97953.41;;;8.20;83.89
84122;BME280;74217;51.106;17.084;2024-02-23T01:48:08;97949.53;;;8.13;85.30
84122;BME280;74217;51.106;17.084;2024-02-23T01:50:53;97945.44;;;8.22;83.96
84122;BME280;74217;51.106;17.084;2024-02-23T01:53:39;97955.72;;;8.12;84.22
84122;BME280;74217;51.106;17.084;2024-02-23T01:56:24;97941.69;;;8.13;83.88
84122;BME280;74217;51.106;17.084;2024-02-23T01:59:10;97943.78;;;8.08;84.49
84122;BME280;74217;51.106;17.084;2024-02-23T02:01:55;97927.47;;;8.05;84.28
84122;BME280;74217;51.106;17.084;2024-02-23T02:04:41;97906.84;;;8.00;83.31
84122;BME280;74217;51.106;17.084;2024-02-23T02:07:25;97932.38;;;8.09;83.25
84122;BME280;74217;51.106;17.084;2024-02-23T02:10:11;97934.56;;;8.15;83.43
84122;BME280;74217;51.106;17.084;2024-02-23T02:13:04;97923.63;;;8.21;82.85
84122;BME280;74217;51.106;17.084;2024-02-23T02:15:50;97935.78;;;8.22;83.23
84122;BME280;74217;51.106;17.084;2024-02-23T02:18:35;97941.44;;;8.29;81.78
84122;BME280;74217;51.106;17.084;2024-02-23T02:21:20;97966.59;;;8.31;81.54
84122;BME280;74217;51.106;17.084;2024-02-23T02:24:09;97967.00;;;8.25;79.98
84122;BME280;74217;51.106;17.084;2024-02-23T02:26:54;97980.63;;;8.30;81.13
84122;BME280;74217;51.106;17.084;2024-02-23T02:29:39;97979.88;;;8.28;80.66
84122;BME280;74217;51.106;17.084;2024-02-23T02:32:24;97984.16;;;8.29;80.59
84122;BME280;74217;51.106;17.084;2024-02-23T02:35:10;97983.16;;;8.19;79.89
84122;BME280;74217;51.106;17.084;2024-02-23T02:37:56;97984.81;;;8.33;80.85
84122;BME280;74217;51.106;17.084;2024-02-23T02:40:41;97979.97;;;8.39;79.62
84122;BME280;74217;51.106;17.084;2024-02-23T02:43:26;97975.38;;;8.30;79.81
84122;BME280;74217;51.106;17.084;2024-02-23T02:46:13;97995.28;;;8.33;80.67
84122;BME280;74217;51.106;17.084;2024-02-23T02:48:58;97993.50;;;8.33;80.96
84122;BME280;74217;51.106;17.084;2024-02-23T02:51:43;97996.34;;;8.30;79.51
84122;BME280;74217;51.106;17.084;2024-02-23T02:54:30;97991.91;;;8.43;79.03
84122;BME280;74217;51.106;17.084;2024-02-23T02:57:15;97995.16;;;8.34;79.97
84122;BME280;74217;51.106;17.084;2024-02-23T03:00:00;97997.34;;;8.40;79.78
84122;BME280;74217;51.106;17.084;2024-02-23T03:02:45;97996.97;;;8.34;81.19
84122;BME280;74217;51.106;17.084;2024-02-23T03:05:30;97996.13;;;8.33;81.02
84122;BME280;74217;51.106;17.084;2024-02-23T03:08:14;97996.13;;;8.33;79.95
84122;BME280;74217;51.106;17.084;2024-02-23T03:11:00;98003.88;;;8.35;78.19
84122;BME280;74217;51.106;17.084;2024-02-23T03:13:44;98007.63;;;8.43;78.96
84122;BME280;74217;51.106;17.084;2024-02-23T03:16:29;98002.81;;;8.37;80.08
84122;BME280;74217;51.106;17.084;2024-02-23T03:19:15;97994.44;;;8.32;78.76
84122;BME280;74217;51.106;17.084;2024-02-23T03:22:00;97996.31;;;8.43;79.79
84122;BME280;74217;51.106;17.084;2024-02-23T03:24:45;98002.41;;;8.43;80.08
84122;BME280;74217;51.106;17.084;2024-02-23T03:27:31;98017.06;;;8.33;79.88
84122;BME280;74217;51.106;17.084;2024-02-23T03:30:15;98009.31;;;8.32;80.66
84122;BME280;74217;51.106;17.084;2024-02-23T03:33:00;98020.22;;;8.38;79.24
84122;BME280;74217;51.106;17.084;2024-02-23T03:35:45;98027.84;;;8.41;79.83
84122;BME280;74217;51.106;17.084;2024-02-23T03:38:30;98054.38;;;8.37;80.19
84122;BME280;74217;51.106;17.084;2024-02-23T03:41:15;98085.19;;;8.46;79.39
84122;BME280;74217;51.106;17.084;2024-02-23T03:44:00;98082.44;;;8.47;78.12
84122;BME280;74217;51.106;17.084;2024-02-23T03:46:45;98084.03;;;8.50;79.64
84122;BME280;74217;51.106;17.084;2024-02-23T03:49:30;98091.06;;;8.49;80.40
84122;BME280;74217;51.106;17.084;2024-02-23T03:52:15;98096.31;;;8.49;81.19
84122;BME280;74217;51.106;17.084;2024-02-23T03:55:00;98105.13;;;8.48;80.65
84122;BME280;74217;51.106;17.084;2024-02-23T03:57:45;98108.56;;;8.49;81.35
84122;BME280;74217;51.106;17.084;2024-02-23T04:00:30;98108.88;;;8.44;80.29
84122;BME280;74217;51.106;17.084;2024-02-23T04:03:15;98114.31;;;8.41;80.47
84122;BME280;74217;51.106;17.084;2024-02-23T04:06:01;98131.53;;;8.45;80.25
84122;BME280;74217;51.106;17.084;2024-02-23T04:08:45;98128.91;;;8.45;80.48
84122;BME280;74217;51.106;17.084;2024-02-23T04:11:31;98135.09;;;8.44;81.13
84122;BME280;74217;51.106;17.084;2024-02-23T04:14:16;98134.66;;;8.38;80.46
84122;BME280;74217;51.106;17.084;2024-02-23T04:17:03;98135.28;;;8.41;81.15
84122;BME280;74217;51.106;17.084;2024-02-23T04:19:48;98138.66;;;8.43;80.92
84122;BME280;74217;51.106;17.084;2024-02-23T04:22:33;98144.94;;;8.41;81.20
84122;BME280;74217;51.106;17.084;2024-02-23T04:25:17;98133.41;;;8.43;80.05
84122;BME280;74217;51.106;17.084;2024-02-23T04:28:03;98136.22;;;8.40;80.37
84122;BME280;74217;51.106;17.084;2024-02-23T04:30:48;98136.13;;;8.42;79.93
84122;BME280;74217;51.106;17.084;2024-02-23T04:33:34;98134.03;;;8.34;79.64
84122;BME280;74217;51.106;17.084;2024-02-23T04:36:19;98144.94;;;8.28;79.84
84122;BME280;74217;51.106;17.084;2024-02-23T04:39:06;98146.50;;;8.31;80.12
84122;BME280;74217;51.106;17.084;2024-02-23T04:41:51;98146.59;;;8.29;79.11
84122;BME280;74217;51.106;17.084;2024-02-23T04:44:36;98137.41;;;8.36;78.53
84122;BME280;74217;51.106;17.084;2024-02-23T04:47:21;98146.19;;;8.35;79.37
84122;BME280;74217;51.106;17.084;2024-02-23T04:50:06;98141.81;;;8.48;78.09
84122;BME280;74217;51.106;17.084;2024-02-23T04:52:51;98148.19;;;8.44;77.39
84122;BME280;74217;51.106;17.084;2024-02-23T04:55:37;98152.47;;;8.45;77.78
84122;BME280;74217;51.106;17.084;2024-02-23T04:58:22;98150.72;;;8.46;78.17
84122;BME280;74217;51.106;17.084;2024-02-23T05:01:07;98159.63;;;8.43;78.88
84122;BME280;74217;51.106;17.084;2024-02-23T05:03:52;98169.16;;;8.44;77.96
84122;BME280;74217;51.106;17.084;2024-02-23T05:06:37;98179.94;;;8.52;78.06
84122;BME280;74217;51.106;17.084;2024-02-23T05:09:21;98183.72;;;8.48;77.67
84122;BME280;74217;51.106;17.084;2024-02-23T05:12:08;98186.03;;;8.53;78.20
84122;BME280;74217;51.106;17.084;2024-02-23T05:14:52;98190.03;;;8.58;77.99
84122;BME280;74217;51.106;17.084;2024-02-23T05:17:38;98201.75;;;8.53;77.88
84122;BME280;74217;51.106;17.084;2024-02-23T05:20:22;98203.03;;;8.60;76.92
84122;BME280;74217;51.106;17.084;2024-02-23T05:23:08;98198.81;;;8.57;78.56
84122;BME280;74217;51.106;17.084;2024-02-23T05:25:52;98195.75;;;8.51;77.79
84122;BME280;74217;51.106;17.084;2024-02-23T05:28:38;98211.53;;;8.63;78.53
84122;BME280;74217;51.106;17.084;2024-02-23T05:31:46;98215.31;;;8.59;77.98
84122;BME280;74217;51.106;17.084;2024-02-23T05:34:32;98228.63;;;8.69;77.80
84122;BME280;74217;51.106;17.084;2024-02-23T05:37:17;98227.03;;;8.54;78.93
84122;BME280;74217;51.106;17.084;2024-02-23T05:40:03;98241.31;;;8.62;78.03
84122;BME280;74217;51.106;17.084;2024-02-23T05:42:51;98240.16;;;8.66;77.94
84122;BME280;74217;51.106;17.084;2024-02-23T05:45:37;98249.19;;;8.62;78.50
84122;BME280;74217;51.106;17.084;2024-02-23T05:48:22;98251.25;;;8.57;78.86
84122;BME280;74217;51.106;17.084;2024-02-23T05:51:06;98259.88;;;8.59;78.02
84122;BME280;74217;51.106;17.084;2024-02-23T05:53:52;98260.06;;;8.56;78.47
84122;BME280;74217;51.106;17.084;2024-02-23T05:56:37;98263.25;;;8.61;77.87
84122;BME280;74217;51.106;17.084;2024-02-23T05:59:22;98269.59;;;8.57;78.07
84122;BME280;74217;51.106;17.084;2024-02-23T06:02:07;98276.44;;;8.60;78.22
84122;BME280;74217;51.106;17.084;2024-02-23T06:04:52;98274.84;;;8.57;78.35
84122;BME280;74217;51.106;17.084;2024-02-23T06:07:37;98289.84;;;8.55;78.15
84122;BME280;74217;51.106;17.084;2024-02-23T06:10:22;98294.94;;;8.57;78.79
84122;BME280;74217;51.106;17.084;2024-02-23T06:13:07;98303.66;;;8.57;78.57
84122;BME280;74217;51.106;17.084;2024-02-23T06:15:52;98307.22;;;8.56;77.66
84122;BME280;74217;51.106;17.084;2024-02-23T06:18:38;98321.28;;;8.55;78.09
84122;BME280;74217;51.106;17.084;2024-02-23T06:21:25;98312.47;;;8.56;78.13
84122;BME280;74217;51.106;17.084;2024-02-23T06:24:11;98321.72;;;8.62;77.53
84122;BME280;74217;51.106;17.084;2024-02-23T06:26:56;98325.94;;;8.64;77.11
84122;BME280;74217;51.106;17.084;2024-02-23T06:29:42;98329.50;;;8.63;78.08
84122;BME280;74217;51.106;17.084;2024-02-23T06:32:27;98330.34;;;8.64;77.57
84122;BME280;74217;51.106;17.084;2024-02-23T06:35:12;98340.00;;;8.63;77.81
84122;BME280;74217;51.106;17.084;2024-02-23T06:37:58;98343.34;;;8.65;77.58
84122;BME280;74217;51.106;17.084;2024-02-23T06:40:43;98351.19;;;8.65;77.18
84122;BME280;74217;51.106;17.084;2024-02-23T06:43:27;98346.28;;;8.61;77.69
84122;BME280;74217;51.106;17.084;2024-02-23T06:46:13;98359.06;;;8.65;76.55
84122;BME280;74217;51.106;17.084;2024-02-23T06:48:57;98366.00;;;8.66;76.46
84122;BME280;74217;51.106;17.084;2024-02-23T06:51:42;98371.22;;;8.66;77.17
84122;BME280;74217;51.106;17.084;2024-02-23T06:54:26;98371.59;;;8.74;75.51
84122;BME280;74217;51.106;17.084;2024-02-23T06:57:11;98358.13;;;8.66;75.45
84122;BME280;74217;51.106;17.084;2024-02-23T06:59:55;98380.28;;;8.75;75.06
84122;BME280;74217;51.106;17.084;2024-02-23T07:02:40;98372.53;;;8.73;73.80
84122;BME280;74217;51.106;17.084;2024-02-23T07:05:25;98377.97;;;8.70;74.21
84122;BME280;74217;51.106;17.084;2024-02-23T07:08:09;98380.72;;;8.81;74.53
84122;BME280;74217;51.106;17.084;2024-02-23T07:10:54;98375.06;;;8.87;73.89
84122;BME280;74217;51.106;17.084;2024-02-23T07:13:42;98383.16;;;8.97;73.26
84122;BME280;74217;51.106;17.084;2024-02-23T07:16:27;98393.56;;;8.98;72.23
84122;BME280;74217;51.106;17.084;2024-02-23T07:19:11;98403.81;;;9.01;73.26
84122;BME280;74217;51.106;17.084;2024-02-23T07:21:56;98400.06;;;9.05;71.85
84122;BME280;74217;51.106;17.084;2024-02-23T07:24:42;98412.88;;;9.10;72.31
84122;BME280;74217;51.106;17.084;2024-02-23T07:27:26;98406.78;;;9.09;71.96
84122;BME280;74217;51.106;17.084;2024-02-23T07:30:11;98399.34;;;9.16;71.08
84122;BME280;74217;51.106;17.084;2024-02-23T07:32:56;98399.03;;;9.08;73.21
84122;BME280;74217;51.106;17.084;2024-02-23T07:35:41;98402.06;;;9.14;70.14
84122;BME280;74217;51.106;17.084;2024-02-23T07:38:27;98406.56;;;9.12;70.84
84122;BME280;74217;51.106;17.084;2024-02-23T07:41:12;98407.72;;;9.08;71.90
84122;BME280;74217;51.106;17.084;2024-02-23T07:43:59;98416.13;;;9.13;71.27
84122;BME280;74217;51.106;17.084;2024-02-23T07:46:44;98416.44;;;9.21;70.00
84122;BME280;74217;51.106;17.084;2024-02-23T07:49:28;98426.94;;;9.21;69.73
84122;BME280;74217;51.106;17.084;2024-02-23T07:52:13;98429.38;;;9.24;70.57
84122;BME280;74217;51.106;17.084;2024-02-23T07:54:57;98429.66;;;9.20;70.49
84122;BME280;74217;51.106;17.084;2024-02-23T07:57:42;98435.34;;;9.26;70.24
84122;BME280;74217;51.106;17.084;2024-02-23T08:00:27;98435.13;;;9.29;69.54
84122;BME280;74217;51.106;17.084;2024-02-23T08:03:13;98442.38;;;9.38;68.92
84122;BME280;74217;51.106;17.084;2024-02-23T08:05:59;98446.28;;;9.45;69.56
84122;BME280;74217;51.106;17.084;2024-02-23T08:08:44;98453.19;;;9.46;69.63
84122;BME280;74217;51.106;17.084;2024-02-23T08:11:29;98450.69;;;9.57;68.33
84122;BME280;74217;51.106;17.084;2024-02-23T08:14:14;98458.69;;;9.68;68.01
84122;BME280;74217;51.106;17.084;2024-02-23T08:16:59;98472.75;;;9.67;68.44
84122;BME280;74217;51.106;17.084;2024-02-23T08:19:44;98479.03;;;9.77;66.96
84122;BME280;74217;51.106;17.084;2024-02-23T08:22:29;98481.16;;;9.85;67.78
84122;BME280;74217;51.106;17.084;2024-02-23T08:25:14;98465.59;;;9.94;67.45
84122;BME280;74217;51.106;17.084;2024-02-23T08:27:59;98478.22;;;10.02;68.36
84122;BME280;74217;51.106;17.084;2024-02-23T08:30:45;98473.16;;;10.11;66.86
84122;BME280;74217;51.106;17.084;2024-02-23T08:33:30;98479.25;;;10.12;66.88
84122;BME280;74217;51.106;17.084;2024-02-23T08:36:14;98489.31;;;10.18;66.91
84122;BME280;74217;51.106;17.084;2024-02-23T08:38:59;98493.75;;;10.17;66.31
84122;BME280;74217;51.106;17.084;2024-02-23T08:41:44;98495.78;;;10.14;66.34
84122;BME280;74217;51.106;17.084;2024-02-23T08:44:29;98501.53;;;10.19;66.49
84122;BME280;74217;51.106;17.084;2024-02-23T08:47:14;98529.81;;;10.15;65.91
84122;BME280;74217;51.106;17.084;2024-02-23T08:49:59;98541.25;;;10.14;61.49
84122;BME280;74217;51.106;17.084;2024-02-23T08:52:44;98538.41;;;9.80;58.28
84122;BME280;74217;51.106;17.084;2024-02-23T08:55:29;98556.16;;;9.64;56.79
84122;BME280;74217;51.106;17.084;2024-02-23T08:58:15;98565.09;;;9.61;53.30
84122;BME280;74217;51.106;17.084;2024-02-23T09:01:00;98555.91;;;9.54;56.43
84122;BME280;74217;51.106;17.084;2024-02-23T09:03:46;98553.59;;;9.50;54.72
84122;BME280;74217;51.106;17.084;2024-02-23T09:06:31;98567.25;;;9.42;52.09
84122;BME280;74217;51.106;17.084;2024-02-23T09:09:17;98575.00;;;9.44;51.43
84122;BME280;74217;51.106;17.084;2024-02-23T09:12:02;98576.66;;;9.32;56.49
84122;BME280;74217;51.106;17.084;2024-02-23T09:14:48;98585.94;;;9.11;55.69
84122;BME280;74217;51.106;17.084;2024-02-23T09:17:33;98592.78;;;9.00;57.19
84122;BME280;74217;51.106;17.084;2024-02-23T09:20:18;98592.31;;;9.07;57.73
84122;BME280;74217;51.106;17.084;2024-02-23T09:23:03;98601.13;;;9.06;56.47
84122;BME280;74217;51.106;17.084;2024-02-23T09:25:48;98603.69;;;9.20;55.98
84122;BME280;74217;51.106;17.084;2024-02-23T09:28:33;98608.34;;;9.29;54.58
84122;BME280;74217;51.106;17.084;2024-02-23T09:31:17;98609.44;;;9.39;54.69
84122;BME280;74217;51.106;17.084;2024-02-23T09:34:03;98615.22;;;9.44;55.70
84122;BME280;74217;51.106;17.084;2024-02-23T09:36:47;98603.78;;;9.45;54.50
84122;BME280;74217;51.106;17.084;2024-02-23T09:39:32;98618.50;;;9.60;53.99
84122;BME280;74217;51.106;17.084;2024-02-23T09:42:18;98619.81;;;9.67;55.41
84122;BME280;74217;51.106;17.084;2024-02-23T09:45:06;98621.91;;;9.75;52.69
84122;BME280;74217;51.106;17.084;2024-02-23T09:47:53;98623.50;;;9.77;52.51
84122;BME280;74217;51.106;17.084;2024-02-23T09:50:40;98621.19;;;9.73;52.30
84122;BME280;74217;51.106;17.084;2024-02-23T09:53:25;98633.28;;;9.75;50.37
84122;BME280;74217;51.106;17.084;2024-02-23T09:56:10;98634.63;;;9.68;52.64
84122;BME280;74217;51.106;17.084;2024-02-23T09:58:57;98619.81;;;9.67;49.25
84122;BME280;74217;51.106;17.084;2024-02-23T10:01:43;98636.84;;;9.74;50.50
84122;BME280;74217;51.106;17.084;2024-02-23T10:04:29;98643.78;;;9.75;51.69
84122;BME280;74217;51.106;17.084;2024-02-23T10:07:15;98647.13;;;9.65;50.48
84122;BME280;74217;51.106;17.084;2024-02-23T10:10:00;98646.72;;;9.71;51.19
84122;BME280;74217;51.106;17.084;2024-02-23T10:12:45;98657.16;;;9.58;51.56
84122;BME280;74217;51.106;17.084;2024-02-23T10:15:30;98667.38;;;9.63;51.41
84122;BME280;74217;51.106;17.084;2024-02-23T10:18:17;98663.94;;;9.75;50.36
84122;BME280;74217;51.106;17.084;2024-02-23T10:21:02;98674.25;;;9.78;49.97
84122;BME280;74217;51.106;17.084;2024-02-23T10:23:47;98677.72;;;9.78;51.02
84122;BME280;74217;51.106;17.084;2024-02-23T10:26:34;98677.84;;;9.77;52.35
84122;BME280;74217;51.106;17.084;2024-02-23T10:29:19;98673.41;;;9.77;50.89
84122;BME280;74217;51.106;17.084;2024-02-23T10:32:05;98675.69;;;9.69;52.68
84122;BME280;74217;51.106;17.084;2024-02-23T10:34:55;98691.38;;;9.71;52.66
84122;BME280;74217;51.106;17.084;2024-02-23T10:37:44;98686.22;;;9.69;52.34
84122;BME280;74217;51.106;17.084;2024-02-23T10:40:33;98693.94;;;9.58;53.46
84122;BME280;74217;51.106;17.084;2024-02-23T10:44:06;98697.09;;;9.63;52.60
84122;BME280;74217;51.106;17.084;2024-02-23T10:46:32;98700.84;;;9.59;58.24
84122;BME280;74217;51.106;17.084;2024-02-23T10:49:17;98697.19;;;9.62;59.68
84122;BME280;74217;51.106;17.084;2024-02-23T10:52:05;98692.97;;;9.59;60.43
84122;BME280;74217;51.106;17.084;2024-02-23T10:54:52;98697.09;;;9.63;60.32
84122;BME280;74217;51.106;17.084;2024-02-23T10:57:37;98692.97;;;9.73;61.45
84122;BME280;74217;51.106;17.084;2024-02-23T11:00:23;98690.25;;;9.87;62.54
84122;BME280;74217;51.106;17.084;2024-02-23T11:03:10;98690.53;;;9.97;62.88
84122;BME280;74217;51.106;17.084;2024-02-23T11:05:55;98692.84;;;10.01;60.97
84122;BME280;74217;51.106;17.084;2024-02-23T11:08:40;98691.34;;;9.97;56.96
84122;BME280;74217;51.106;17.084;2024-02-23T11:11:25;98694.72;;;9.99;57.35
84122;BME280;74217;51.106;17.084;2024-02-23T11:14:09;98698.41;;;10.09;53.24
84122;BME280;74217;51.106;17.084;2024-02-23T11:16:54;98692.44;;;10.20;51.79
84122;BME280;74217;51.106;17.084;2024-02-23T11:19:39;98693.50;;;10.17;54.04
84122;BME280;74217;51.106;17.084;2024-02-23T11:22:30;98685.94;;;10.25;53.67
84122;BME280;74217;51.106;17.084;2024-02-23T11:25:16;98674.47;;;10.26;54.83
84122;BME280;74217;51.106;17.084;2024-02-23T11:28:02;98673.22;;;10.44;53.57
84122;BME280;74217;51.106;17.084;2024-02-23T11:30:47;98676.06;;;10.54;51.43
84122;BME280;74217;51.106;17.084;2024-02-23T11:33:37;98674.28;;;10.54;50.27
84122;BME280;74217;51.106;17.084;2024-02-23T11:36:32;98661.34;;;10.51;49.93
84122;BME280;74217;51.106;17.084;2024-02-23T11:39:17;98657.75;;;10.52;50.50
84122;BME280;74217;51.106;17.084;2024-02-23T11:42:04;98654.19;;;10.53;52.68
84122;BME280;74217;51.106;17.084;2024-02-23T11:44:50;98647.34;;;10.63;52.61
84122;BME280;74217;51.106;17.084;2024-02-23T11:47:34;98651.88;;;10.61;51.81
84122;BME280;74217;51.106;17.084;2024-02-23T11:50:24;98656.09;;;10.64;49.97
84122;BME280;74217;51.106;17.084;2024-02-23T11:53:08;98662.06;;;10.66;51.03
84122;BME280;74217;51.106;17.084;2024-02-23T11:55:53;98663.03;;;10.65;50.18
84122;BME280;74217;51.106;17.084;2024-02-23T11:58:39;98662.28;;;10.63;49.81
84122;BME280;74217;51.106;17.084;2024-02-23T12:01:24;98673.66;;;10.63;48.37
84122;BME280;74217;51.106;17.084;2024-02-23T12:04:08;98686.25;;;10.58;48.07
84122;BME280;74217;51.106;17.084;2024-02-23T12:06:53;98698.78;;;10.55;49.44
84122;BME280;74217;51.106;17.084;2024-02-23T12:09:42;98703.63;;;10.48;52.25
84122;BME280;74217;51.106;17.084;2024-02-23T12:12:28;98708.38;;;10.43;53.58
84122;BME280;74217;51.106;17.084;2024-02-23T12:15:13;98707.81;;;10.38;53.27
84122;BME280;74217;51.106;17.084;2024-02-23T12:17:58;98711.41;;;10.37;54.97
84122;BME280;74217;51.106;17.084;2024-02-23T12:20:46;98722.88;;;10.36;53.87
84122;BME280;74217;51.106;17.084;2024-02-23T12:23:42;98725.91;;;10.30;54.81
84122;BME280;74217;51.106;17.084;2024-02-23T12:34:46;98745.22;;;10.04;56.84
84122;BME280;74217;51.106;17.084;2024-02-23T12:37:35;98751.28;;;10.05;57.11
84122;BME280;74217;51.106;17.084;2024-02-23T12:40:20;98752.16;;;10.05;55.59
84122;BME280;74217;51.106;17.084;2024-02-23T12:43:05;98759.84;;;9.94;57.14
84122;BME280;74217;51.106;17.084;2024-02-23T12:45:50;98760.66;;;9.95;56.91
84122;BME280;74217;51.106;17.084;2024-02-23T12:48:35;98761.56;;;9.95;57.06
84122;BME280;74217;51.106;17.084;2024-02-23T12:51:25;98760.25;;;9.88;58.21
84122;BME280;74217;51.106;17.084;2024-02-23T12:54:11;98753.31;;;9.87;59.94
84122;BME280;74217;51.106;17.084;2024-02-23T12:56:55;98753.88;;;9.78;60.99
84122;BME280;74217;51.106;17.084;2024-02-23T12:59:42;98748.19;;;9.72;62.16
84122;BME280;74217;51.106;17.084;2024-02-23T13:02:26;98754.66;;;9.66;62.01
84122;BME280;74217;51.106;17.084;2024-02-23T13:05:11;98752.25;;;9.63;62.10
84122;BME280;74217;51.106;17.084;2024-02-23T13:07:56;98759.09;;;9.66;63.61
84122;BME280;74217;51.106;17.084;2024-02-23T13:10:40;98759.75;;;9.69;61.82
84122;BME280;74217;51.106;17.084;2024-02-23T13:13:25;98747.69;;;9.53;61.13
84122;BME280;74217;51.106;17.084;2024-02-23T13:16:10;98756.56;;;9.64;60.68
84122;BME280;74217;51.106;17.084;2024-02-23T13:18:55;98766.38;;;9.75;62.36
84122;BME280;74217;51.106;17.084;2024-02-23T13:21:40;98766.75;;;9.69;63.28
84122;BME280;74217;51.106;17.084;2024-02-23T13:24:25;98768.09;;;9.62;63.74
84122;BME280;74217;51.106;17.084;2024-02-23T13:27:09;98766.72;;;9.56;62.67
84122;BME280;74217;51.106;17.084;2024-02-23T13:29:53;98767.13;;;9.36;64.68
84122;BME280;74217;51.106;17.084;2024-02-23T13:32:38;98767.88;;;9.38;64.73
84122;BME280;74217;51.106;17.084;2024-02-23T13:35:23;98769.38;;;9.28;65.10
84122;BME280;74217;51.106;17.084;2024-02-23T13:38:08;98766.00;;;9.26;63.22
84122;BME280;74217;51.106;17.084;2024-02-23T13:40:53;98768.44;;;9.15;62.57
84122;BME280;74217;51.106;17.084;2024-02-23T13:43:38;98769.41;;;9.00;62.91
84122;BME280;74217;51.106;17.084;2024-02-23T13:46:23;98771.09;;;9.01;64.33
84122;BME280;74217;51.106;17.084;2024-02-23T13:49:08;98779.63;;;9.05;64.56
84122;BME280;74217;51.106;17.084;2024-02-23T13:51:54;98774.28;;;9.06;64.15
84122;BME280;74217;51.106;17.084;2024-02-23T13:54:39;98778.75;;;9.04;64.02
84122;BME280;74217;51.106;17.084;2024-02-23T13:57:24;98777.84;;;9.05;63.65
84122;BME280;74217;51.106;17.084;2024-02-23T14:00:10;98768.19;;;9.06;63.38
84122;BME280;74217;51.106;17.084;2024-02-23T14:02:56;98765.84;;;9.01;63.94
84122;BME280;74217;51.106;17.084;2024-02-23T14:05:42;98759.47;;;8.91;64.19
84122;BME280;74217;51.106;17.084;2024-02-23T14:08:28;98754.59;;;8.99;64.39
84122;BME280;74217;51.106;17.084;2024-02-23T14:11:13;98766.03;;;8.98;62.87
84122;BME280;74217;51.106;17.084;2024-02-23T14:13:58;98768.84;;;8.95;61.97
84122;BME280;74217;51.106;17.084;2024-02-23T14:16:43;98791.59;;;8.95;62.59
84122;BME280;74217;51.106;17.084;2024-02-23T14:19:28;98783.84;;;8.93;63.62
84122;BME280;74217;51.106;17.084;2024-02-23T14:22:13;98783.63;;;8.96;63.04
84122;BME280;74217;51.106;17.084;2024-02-23T14:24:57;98784.50;;;8.97;63.31
84122;BME280;74217;51.106;17.084;2024-02-23T14:27:43;98788.88;;;8.96;65.01
84122;BME280;74217;51.106;17.084;2024-02-23T14:30:27;98783.06;;;8.91;63.56
84122;BME280;74217;51.106;17.084;2024-02-23T14:33:12;98781.22;;;8.93;64.22
84122;BME280;74217;51.106;17.084;2024-02-23T14:35:57;98779.63;;;8.91;64.57
84122;BME280;74217;51.106;17.084;2024-02-23T14:38:42;98790.94;;;8.91;63.92
84122;BME280;74217;51.106;17.084;2024-02-23T14:41:27;98777.66;;;8.80;63.53
84122;BME280;74217;51.106;17.084;2024-02-23T14:44:12;98789.75;;;8.83;63.13